CA-0101 weather

CLOSED Cowpar Airport
Alberta, Canada

Public forecast

Using degrees Celsius for public forecast. Weather courtesy of forecast.io.

METAR (pilot weather report)

Closest report is Fort McMurray Airport, 48.6 nm (90.0 km) NNW. Retrieved 2019/05/27 07:00 UTC (36 minutes ago):

CYMM 270700Z AUTO 22012KT 9SM CLR 15/M03 A2989 RMK SLP129 DENSITY ALT 1400FT

TAF (pilot weather forecast)

Closest forecast is Fort McMurray Airport, 48.6 nm (90.0 km) NNW. Retrieved 2019/05/27 07:39 UTC (0 seconds ago):

TAF CYMM 270638Z 2707/2719 21010KT P6SM FEW025 TEMPO 2707/2712 5SM FU FM271200 26005KT P6SM BKN090 TEMPO 2712/2719 5SM FU RMK FCST BASED ON AUTO OBS. NXT FCST BY 271300Z